sensor_id;sensor_type;location;lat;lon;timestamp;P1;durP1;ratioP1;P2;durP2;ratioP2
12869;SDS011;6503;48.572;13.460;2022-11-12T00:01:42;37.95;;;13.00;;
12869;SDS011;6503;48.572;13.460;2022-11-12T00:04:09;58.95;;;13.63;;
12869;SDS011;6503;48.572;13.460;2022-11-12T00:06:37;38.45;;;13.63;;
12869;SDS011;6503;48.572;13.460;2022-11-12T00:09:04;27.35;;;13.82;;
12869;SDS011;6503;48.572;13.460;2022-11-12T00:11:31;48.80;;;12.95;;
12869;SDS011;6503;48.572;13.460;2022-11-12T00:13:58;30.95;;;12.73;;
12869;SDS011;6503;48.572;13.460;2022-11-12T00:16:25;31.95;;;13.20;;
12869;SDS011;6503;48.572;13.460;2022-11-12T00:18:52;35.85;;;13.60;;
12869;SDS011;6503;48.572;13.460;2022-11-12T00:21:19;53.72;;;13.55;;
12869;SDS011;6503;48.572;13.460;2022-11-12T00:23:49;39.70;;;11.93;;
12869;SDS011;6503;48.572;13.460;2022-11-12T00:26:15;39.00;;;12.13;;
12869;SDS011;6503;48.572;13.460;2022-11-12T00:28:42;34.83;;;12.10;;
12869;SDS011;6503;48.572;13.460;2022-11-12T00:31:10;23.90;;;12.02;;
12869;SDS011;6503;48.572;13.460;2022-11-12T00:33:40;24.98;;;12.52;;
12869;SDS011;6503;48.572;13.460;2022-11-12T00:36:08;31.77;;;13.10;;
12869;SDS011;6503;48.572;13.460;2022-11-12T00:38:36;25.35;;;11.48;;
12869;SDS011;6503;48.572;13.460;2022-11-12T00:41:04;40.70;;;11.50;;
12869;SDS011;6503;48.572;13.460;2022-11-12T00:43:31;29.88;;;11.10;;
12869;SDS011;6503;48.572;13.460;2022-11-12T00:45:58;31.45;;;10.77;;
12869;SDS011;6503;48.572;13.460;2022-11-12T00:48:25;24.05;;;11.18;;
12869;SDS011;6503;48.572;13.460;2022-11-12T00:50:57;24.95;;;11.02;;
12869;SDS011;6503;48.572;13.460;2022-11-12T00:53:25;49.28;;;11.25;;
12869;SDS011;6503;48.572;13.460;2022-11-12T00:55:52;52.72;;;11.48;;
12869;SDS011;6503;48.572;13.460;2022-11-12T00:58:20;34.45;;;10.98;;
12869;SDS011;6503;48.572;13.460;2022-11-12T01:00:47;34.95;;;11.93;;
12869;SDS011;6503;48.572;13.460;2022-11-12T01:03:13;29.05;;;10.82;;
12869;SDS011;6503;48.572;13.460;2022-11-12T01:05:40;34.67;;;10.23;;
12869;SDS011;6503;48.572;13.460;2022-11-12T01:08:07;37.65;;;10.13;;
12869;SDS011;6503;48.572;13.460;2022-11-12T01:10:34;27.45;;;9.27;;
12869;SDS011;6503;48.572;13.460;2022-11-12T01:13:01;33.83;;;10.35;;
12869;SDS011;6503;48.572;13.460;2022-11-12T01:15:29;30.83;;;10.20;;
12869;SDS011;6503;48.572;13.460;2022-11-12T01:17:56;23.08;;;10.07;;
12869;SDS011;6503;48.572;13.460;2022-11-12T01:20:23;21.05;;;10.20;;
12869;SDS011;6503;48.572;13.460;2022-11-12T01:22:49;23.00;;;10.48;;
12869;SDS011;6503;48.572;13.460;2022-11-12T01:25:16;16.88;;;10.02;;
12869;SDS011;6503;48.572;13.460;2022-11-12T01:27:46;21.58;;;10.98;;
12869;SDS011;6503;48.572;13.460;2022-11-12T01:30:13;22.70;;;10.57;;
12869;SDS011;6503;48.572;13.460;2022-11-12T01:32:41;19.33;;;9.82;;
12869;SDS011;6503;48.572;13.460;2022-11-12T01:35:08;40.35;;;10.60;;
12869;SDS011;6503;48.572;13.460;2022-11-12T01:37:34;27.02;;;10.68;;
12869;SDS011;6503;48.572;13.460;2022-11-12T01:40:02;33.38;;;10.80;;
12869;SDS011;6503;48.572;13.460;2022-11-12T01:42:30;27.90;;;10.82;;
12869;SDS011;6503;48.572;13.460;2022-11-12T01:44:57;31.95;;;12.65;;
12869;SDS011;6503;48.572;13.460;2022-11-12T01:47:24;27.70;;;11.68;;
12869;SDS011;6503;48.572;13.460;2022-11-12T01:49:56;27.83;;;10.98;;
12869;SDS011;6503;48.572;13.460;2022-11-12T01:52:27;24.00;;;9.45;;
12869;SDS011;6503;48.572;13.460;2022-11-12T01:54:57;31.17;;;10.55;;
12869;SDS011;6503;48.572;13.460;2022-11-12T01:57:28;22.83;;;10.30;;
12869;SDS011;6503;48.572;13.460;2022-11-12T02:00:03;30.08;;;11.38;;
12869;SDS011;6503;48.572;13.460;2022-11-12T02:02:33;53.22;;;13.30;;
12869;SDS011;6503;48.572;13.460;2022-11-12T02:05:02;32.20;;;10.75;;
12869;SDS011;6503;48.572;13.460;2022-11-12T02:07:32;24.52;;;11.48;;
12869;SDS011;6503;48.572;13.460;2022-11-12T02:10:02;24.38;;;10.55;;
12869;SDS011;6503;48.572;13.460;2022-11-12T02:12:30;51.58;;;12.50;;
12869;SDS011;6503;48.572;13.460;2022-11-12T02:15:16;20.48;;;10.13;;
12869;SDS011;6503;48.572;13.460;2022-11-12T02:17:43;90.43;;;16.73;;
12869;SDS011;6503;48.572;13.460;2022-11-12T02:20:11;25.65;;;12.32;;
12869;SDS011;6503;48.572;13.460;2022-11-12T02:22:40;36.03;;;11.77;;
12869;SDS011;6503;48.572;13.460;2022-11-12T02:25:08;69.80;;;12.93;;
12869;SDS011;6503;48.572;13.460;2022-11-12T02:27:37;39.67;;;12.50;;
12869;SDS011;6503;48.572;13.460;2022-11-12T02:30:05;43.05;;;12.75;;
12869;SDS011;6503;48.572;13.460;2022-11-12T02:32:32;37.10;;;12.98;;
12869;SDS011;6503;48.572;13.460;2022-11-12T02:34:59;36.90;;;13.70;;
12869;SDS011;6503;48.572;13.460;2022-11-12T02:37:25;43.80;;;14.75;;
12869;SDS011;6503;48.572;13.460;2022-11-12T02:39:54;32.00;;;13.02;;
12869;SDS011;6503;48.572;13.460;2022-11-12T02:42:20;30.02;;;13.68;;
12869;SDS011;6503;48.572;13.460;2022-11-12T02:44:47;41.90;;;17.27;;
12869;SDS011;6503;48.572;13.460;2022-11-12T02:47:15;58.72;;;42.00;;
12869;SDS011;6503;48.572;13.460;2022-11-12T02:49:42;32.05;;;13.13;;
12869;SDS011;6503;48.572;13.460;2022-11-12T02:52:09;46.65;;;15.48;;
12869;SDS011;6503;48.572;13.460;2022-11-12T02:54:37;57.17;;;15.07;;
12869;SDS011;6503;48.572;13.460;2022-11-12T02:57:06;46.15;;;12.75;;
12869;SDS011;6503;48.572;13.460;2022-11-12T02:59:32;30.88;;;13.57;;
12869;SDS011;6503;48.572;13.460;2022-11-12T03:01:59;26.88;;;11.88;;
12869;SDS011;6503;48.572;13.460;2022-11-12T03:04:26;24.65;;;14.57;;
12869;SDS011;6503;48.572;13.460;2022-11-12T03:06:53;29.88;;;12.15;;
12869;SDS011;6503;48.572;13.460;2022-11-12T03:09:19;19.17;;;12.10;;
12869;SDS011;6503;48.572;13.460;2022-11-12T03:11:46;31.35;;;13.98;;
12869;SDS011;6503;48.572;13.460;2022-11-12T03:14:14;36.67;;;15.32;;
12869;SDS011;6503;48.572;13.460;2022-11-12T03:16:41;33.42;;;14.40;;
12869;SDS011;6503;48.572;13.460;2022-11-12T03:19:08;38.05;;;12.27;;
12869;SDS011;6503;48.572;13.460;2022-11-12T03:21:35;40.95;;;13.73;;
12869;SDS011;6503;48.572;13.460;2022-11-12T03:24:02;48.53;;;16.08;;
12869;SDS011;6503;48.572;13.460;2022-11-12T03:26:29;76.55;;;18.10;;
12869;SDS011;6503;48.572;13.460;2022-11-12T03:28:55;36.65;;;14.55;;
12869;SDS011;6503;48.572;13.460;2022-11-12T03:31:23;24.23;;;14.65;;
12869;SDS011;6503;48.572;13.460;2022-11-12T03:33:50;40.10;;;15.15;;
12869;SDS011;6503;48.572;13.460;2022-11-12T03:36:17;52.60;;;17.13;;
12869;SDS011;6503;48.572;13.460;2022-11-12T03:38:44;57.85;;;18.77;;
12869;SDS011;6503;48.572;13.460;2022-11-12T03:41:11;36.35;;;16.30;;
12869;SDS011;6503;48.572;13.460;2022-11-12T03:43:38;29.85;;;15.93;;
12869;SDS011;6503;48.572;13.460;2022-11-12T03:46:04;35.17;;;14.27;;
12869;SDS011;6503;48.572;13.460;2022-11-12T03:48:32;42.78;;;14.40;;
12869;SDS011;6503;48.572;13.460;2022-11-12T03:51:02;33.83;;;12.95;;
12869;SDS011;6503;48.572;13.460;2022-11-12T03:53:29;39.03;;;13.02;;
12869;SDS011;6503;48.572;13.460;2022-11-12T03:55:56;33.67;;;12.38;;
12869;SDS011;6503;48.572;13.460;2022-11-12T03:58:22;34.88;;;12.93;;
12869;SDS011;6503;48.572;13.460;2022-11-12T04:00:49;31.45;;;12.27;;
12869;SDS011;6503;48.572;13.460;2022-11-12T04:03:16;25.40;;;11.98;;
12869;SDS011;6503;48.572;13.460;2022-11-12T04:05:44;33.55;;;11.32;;
12869;SDS011;6503;48.572;13.460;2022-11-12T04:08:29;45.83;;;12.38;;
12869;SDS011;6503;48.572;13.460;2022-11-12T04:11:03;46.30;;;12.30;;
12869;SDS011;6503;48.572;13.460;2022-11-12T04:13:32;51.53;;;11.57;;
12869;SDS011;6503;48.572;13.460;2022-11-12T04:16:00;37.10;;;11.15;;
12869;SDS011;6503;48.572;13.460;2022-11-12T04:18:47;21.98;;;10.13;;
12869;SDS011;6503;48.572;13.460;2022-11-12T04:21:35;26.75;;;10.48;;
12869;SDS011;6503;48.572;13.460;2022-11-12T04:24:16;23.42;;;10.52;;
12869;SDS011;6503;48.572;13.460;2022-11-12T04:27:01;20.58;;;9.38;;
12869;SDS011;6503;48.572;13.460;2022-11-12T04:29:28;67.95;;;11.27;;
12869;SDS011;6503;48.572;13.460;2022-11-12T04:32:12;19.30;;;9.60;;
12869;SDS011;6503;48.572;13.460;2022-11-12T04:34:39;32.42;;;10.52;;
12869;SDS011;6503;48.572;13.460;2022-11-12T04:37:08;25.73;;;8.90;;
12869;SDS011;6503;48.572;13.460;2022-11-12T04:39:35;27.60;;;9.38;;
12869;SDS011;6503;48.572;13.460;2022-11-12T04:42:02;31.48;;;9.23;;
12869;SDS011;6503;48.572;13.460;2022-11-12T04:44:48;23.40;;;8.93;;
12869;SDS011;6503;48.572;13.460;2022-11-12T04:47:25;29.48;;;9.73;;
12869;SDS011;6503;48.572;13.460;2022-11-12T04:49:53;41.08;;;10.52;;
12869;SDS011;6503;48.572;13.460;2022-11-12T04:52:22;20.88;;;8.77;;
12869;SDS011;6503;48.572;13.460;2022-11-12T04:54:49;31.38;;;9.35;;
12869;SDS011;6503;48.572;13.460;2022-11-12T04:57:16;21.52;;;9.00;;
12869;SDS011;6503;48.572;13.460;2022-11-12T04:59:44;18.70;;;8.30;;
12869;SDS011;6503;48.572;13.460;2022-11-12T05:02:11;28.02;;;8.85;;
12869;SDS011;6503;48.572;13.460;2022-11-12T05:04:38;31.38;;;8.98;;
12869;SDS011;6503;48.572;13.460;2022-11-12T05:07:05;36.65;;;9.50;;
12869;SDS011;6503;48.572;13.460;2022-11-12T05:09:34;28.98;;;8.50;;
12869;SDS011;6503;48.572;13.460;2022-11-12T05:12:01;23.33;;;8.63;;
12869;SDS011;6503;48.572;13.460;2022-11-12T05:14:28;23.33;;;8.20;;
12869;SDS011;6503;48.572;13.460;2022-11-12T05:16:58;20.35;;;8.90;;
12869;SDS011;6503;48.572;13.460;2022-11-12T05:19:24;28.27;;;8.52;;
12869;SDS011;6503;48.572;13.460;2022-11-12T05:21:51;15.43;;;8.75;;
12869;SDS011;6503;48.572;13.460;2022-11-12T05:24:31;17.73;;;8.85;;
12869;SDS011;6503;48.572;13.460;2022-11-12T05:27:01;16.83;;;9.13;;
12869;SDS011;6503;48.572;13.460;2022-11-12T05:29:28;19.88;;;8.95;;
12869;SDS011;6503;48.572;13.460;2022-11-12T05:31:55;12.38;;;8.15;;
12869;SDS011;6503;48.572;13.460;2022-11-12T05:34:22;21.88;;;8.15;;
12869;SDS011;6503;48.572;13.460;2022-11-12T05:36:49;29.92;;;9.20;;
12869;SDS011;6503;48.572;13.460;2022-11-12T05:39:16;31.25;;;9.30;;
12869;SDS011;6503;48.572;13.460;2022-11-12T05:41:43;24.30;;;9.43;;
12869;SDS011;6503;48.572;13.460;2022-11-12T05:44:13;21.00;;;8.77;;
12869;SDS011;6503;48.572;13.460;2022-11-12T05:46:39;20.27;;;7.93;;
12869;SDS011;6503;48.572;13.460;2022-11-12T05:49:06;20.25;;;8.70;;
12869;SDS011;6503;48.572;13.460;2022-11-12T05:51:33;21.70;;;8.48;;
12869;SDS011;6503;48.572;13.460;2022-11-12T05:54:00;23.40;;;8.15;;
12869;SDS011;6503;48.572;13.460;2022-11-12T05:56:27;69.13;;;10.30;;
12869;SDS011;6503;48.572;13.460;2022-11-12T05:58:54;14.48;;;7.40;;
12869;SDS011;6503;48.572;13.460;2022-11-12T06:01:22;13.93;;;7.53;;
12869;SDS011;6503;48.572;13.460;2022-11-12T06:03:49;14.10;;;7.90;;
12869;SDS011;6503;48.572;13.460;2022-11-12T06:06:16;13.70;;;7.32;;
12869;SDS011;6503;48.572;13.460;2022-11-12T06:08:43;25.73;;;8.75;;
12869;SDS011;6503;48.572;13.460;2022-11-12T06:11:10;15.10;;;8.57;;
12869;SDS011;6503;48.572;13.460;2022-11-12T06:13:38;19.95;;;8.15;;
12869;SDS011;6503;48.572;13.460;2022-11-12T06:16:05;31.10;;;8.65;;
12869;SDS011;6503;48.572;13.460;2022-11-12T06:18:34;35.65;;;8.73;;
12869;SDS011;6503;48.572;13.460;2022-11-12T06:21:02;24.73;;;8.27;;
12869;SDS011;6503;48.572;13.460;2022-11-12T06:23:45;22.35;;;8.15;;
12869;SDS011;6503;48.572;13.460;2022-11-12T06:26:12;25.20;;;8.75;;
12869;SDS011;6503;48.572;13.460;2022-11-12T06:28:39;29.58;;;9.10;;
12869;SDS011;6503;48.572;13.460;2022-11-12T06:31:06;44.97;;;9.45;;
12869;SDS011;6503;48.572;13.460;2022-11-12T06:33:34;38.05;;;9.32;;
12869;SDS011;6503;48.572;13.460;2022-11-12T06:36:02;27.63;;;9.15;;
12869;SDS011;6503;48.572;13.460;2022-11-12T06:38:31;24.63;;;9.18;;
12869;SDS011;6503;48.572;13.460;2022-11-12T06:40:59;19.98;;;9.68;;
12869;SDS011;6503;48.572;13.460;2022-11-12T06:43:26;23.00;;;9.88;;
12869;SDS011;6503;48.572;13.460;2022-11-12T06:45:57;17.75;;;9.63;;
12869;SDS011;6503;48.572;13.460;2022-11-12T06:48:25;21.00;;;10.00;;
12869;SDS011;6503;48.572;13.460;2022-11-12T06:50:54;29.65;;;9.50;;
12869;SDS011;6503;48.572;13.460;2022-11-12T06:53:21;20.90;;;8.15;;
12869;SDS011;6503;48.572;13.460;2022-11-12T06:55:47;24.17;;;9.10;;
12869;SDS011;6503;48.572;13.460;2022-11-12T06:58:14;21.45;;;9.63;;
12869;SDS011;6503;48.572;13.460;2022-11-12T07:00:41;32.03;;;9.73;;
12869;SDS011;6503;48.572;13.460;2022-11-12T07:03:08;38.67;;;8.95;;
12869;SDS011;6503;48.572;13.460;2022-11-12T07:05:35;18.80;;;7.63;;
12869;SDS011;6503;48.572;13.460;2022-11-12T07:08:04;25.67;;;9.38;;
12869;SDS011;6503;48.572;13.460;2022-11-12T07:10:31;45.10;;;7.95;;
12869;SDS011;6503;48.572;13.460;2022-11-12T07:12:59;31.60;;;8.13;;
12869;SDS011;6503;48.572;13.460;2022-11-12T07:15:26;15.02;;;8.73;;
12869;SDS011;6503;48.572;13.460;2022-11-12T07:17:53;19.70;;;8.63;;
12869;SDS011;6503;48.572;13.460;2022-11-12T07:20:19;20.63;;;8.43;;
12869;SDS011;6503;48.572;13.460;2022-11-12T07:22:48;13.80;;;8.85;;
12869;SDS011;6503;48.572;13.460;2022-11-12T07:25:17;41.38;;;11.10;;
12869;SDS011;6503;48.572;13.460;2022-11-12T07:27:44;16.85;;;8.25;;
12869;SDS011;6503;48.572;13.460;2022-11-12T07:30:11;15.60;;;8.45;;
12869;SDS011;6503;48.572;13.460;2022-11-12T07:32:39;16.80;;;8.80;;
12869;SDS011;6503;48.572;13.460;2022-11-12T07:35:06;26.25;;;8.93;;
12869;SDS011;6503;48.572;13.460;2022-11-12T07:37:33;22.10;;;9.00;;
12869;SDS011;6503;48.572;13.460;2022-11-12T07:40:02;32.95;;;9.75;;
12869;SDS011;6503;48.572;13.460;2022-11-12T07:42:32;15.80;;;8.38;;
12869;SDS011;6503;48.572;13.460;2022-11-12T07:44:59;38.17;;;10.15;;
12869;SDS011;6503;48.572;13.460;2022-11-12T07:47:28;29.00;;;10.15;;
12869;SDS011;6503;48.572;13.460;2022-11-12T07:49:55;31.23;;;9.75;;
12869;SDS011;6503;48.572;13.460;2022-11-12T07:52:22;40.13;;;11.10;;
12869;SDS011;6503;48.572;13.460;2022-11-12T07:54:49;19.20;;;11.10;;
12869;SDS011;6503;48.572;13.460;2022-11-12T07:57:17;48.35;;;13.25;;
12869;SDS011;6503;48.572;13.460;2022-11-12T07:59:45;18.13;;;11.00;;
12869;SDS011;6503;48.572;13.460;2022-11-12T08:02:12;18.17;;;11.50;;
12869;SDS011;6503;48.572;13.460;2022-11-12T08:04:39;25.90;;;10.85;;
12869;SDS011;6503;48.572;13.460;2022-11-12T08:07:06;30.55;;;10.57;;
12869;SDS011;6503;48.572;13.460;2022-11-12T08:09:33;36.75;;;11.48;;
12869;SDS011;6503;48.572;13.460;2022-11-12T08:12:00;17.02;;;11.30;;
12869;SDS011;6503;48.572;13.460;2022-11-12T08:14:27;28.67;;;10.93;;
12869;SDS011;6503;48.572;13.460;2022-11-12T08:16:55;16.48;;;10.38;;
12869;SDS011;6503;48.572;13.460;2022-11-12T08:19:22;16.95;;;10.82;;
12869;SDS011;6503;48.572;13.460;2022-11-12T08:21:48;41.63;;;11.38;;
12869;SDS011;6503;48.572;13.460;2022-11-12T08:24:15;18.85;;;11.10;;
12869;SDS011;6503;48.572;13.460;2022-11-12T08:26:42;18.52;;;10.70;;
12869;SDS011;6503;48.572;13.460;2022-11-12T08:29:09;17.13;;;9.77;;
12869;SDS011;6503;48.572;13.460;2022-11-12T08:31:36;18.00;;;9.77;;
12869;SDS011;6503;48.572;13.460;2022-11-12T08:34:04;13.27;;;10.05;;
12869;SDS011;6503;48.572;13.460;2022-11-12T08:36:42;29.13;;;11.23;;
12869;SDS011;6503;48.572;13.460;2022-11-12T08:39:09;31.08;;;11.98;;
12869;SDS011;6503;48.572;13.460;2022-11-12T08:41:36;12.35;;;10.65;;
12869;SDS011;6503;48.572;13.460;2022-11-12T08:44:03;14.55;;;11.50;;
12869;SDS011;6503;48.572;13.460;2022-11-12T08:46:30;12.05;;;10.13;;
12869;SDS011;6503;48.572;13.460;2022-11-12T08:48:57;11.00;;;9.63;;
12869;SDS011;6503;48.572;13.460;2022-11-12T08:51:25;12.80;;;8.98;;
12869;SDS011;6503;48.572;13.460;2022-11-12T08:53:52;13.32;;;9.90;;
12869;SDS011;6503;48.572;13.460;2022-11-12T08:56:19;11.10;;;9.40;;
12869;SDS011;6503;48.572;13.460;2022-11-12T08:58:46;12.63;;;10.55;;
12869;SDS011;6503;48.572;13.460;2022-11-12T09:01:12;11.60;;;9.93;;
12869;SDS011;6503;48.572;13.460;2022-11-12T09:03:39;11.07;;;9.80;;
12869;SDS011;6503;48.572;13.460;2022-11-12T09:06:06;10.43;;;9.20;;
12869;SDS011;6503;48.572;13.460;2022-11-12T09:08:35;11.82;;;9.43;;
12869;SDS011;6503;48.572;13.460;2022-11-12T09:11:04;10.88;;;9.60;;
12869;SDS011;6503;48.572;13.460;2022-11-12T09:13:31;11.68;;;9.77;;
12869;SDS011;6503;48.572;13.460;2022-11-12T09:15:59;10.43;;;9.23;;
12869;SDS011;6503;48.572;13.460;2022-11-12T09:18:27;13.52;;;9.93;;
12869;SDS011;6503;48.572;13.460;2022-11-12T09:20:57;10.20;;;8.90;;
12869;SDS011;6503;48.572;13.460;2022-11-12T09:23:28;10.38;;;9.15;;
12869;SDS011;6503;48.572;13.460;2022-11-12T09:25:56;11.27;;;9.52;;
12869;SDS011;6503;48.572;13.460;2022-11-12T09:28:23;10.88;;;9.73;;
12869;SDS011;6503;48.572;13.460;2022-11-12T09:30:51;14.13;;;10.20;;
12869;SDS011;6503;48.572;13.460;2022-11-12T09:33:18;13.02;;;9.35;;
12869;SDS011;6503;48.572;13.460;2022-11-12T09:35:47;18.80;;;9.70;;
12869;SDS011;6503;48.572;13.460;2022-11-12T09:38:14;11.60;;;8.85;;
12869;SDS011;6503;48.572;13.460;2022-11-12T09:40:46;10.93;;;9.35;;
12869;SDS011;6503;48.572;13.460;2022-11-12T09:43:57;10.50;;;9.13;;
12869;SDS011;6503;48.572;13.460;2022-11-12T09:46:30;18.90;;;12.00;;
12869;SDS011;6503;48.572;13.460;2022-11-12T09:49:04;12.43;;;9.60;;
12869;SDS011;6503;48.572;13.460;2022-11-12T09:51:40;10.63;;;9.32;;
12869;SDS011;6503;48.572;13.460;2022-11-12T09:54:15;13.77;;;9.75;;
12869;SDS011;6503;48.572;13.460;2022-11-12T09:56:47;10.00;;;8.57;;
12869;SDS011;6503;48.572;13.460;2022-11-12T09:59:16;11.77;;;9.30;;
12869;SDS011;6503;48.572;13.460;2022-11-12T10:01:46;9.68;;;8.65;;
12869;SDS011;6503;48.572;13.460;2022-11-12T10:04:27;14.80;;;9.52;;
12869;SDS011;6503;48.572;13.460;2022-11-12T10:07:19;9.98;;;8.63;;
12869;SDS011;6503;48.572;13.460;2022-11-12T10:09:58;12.13;;;10.00;;
12869;SDS011;6503;48.572;13.460;2022-11-12T10:12:33;11.68;;;9.95;;
12869;SDS011;6503;48.572;13.460;2022-11-12T10:15:17;11.77;;;10.15;;
12869;SDS011;6503;48.572;13.460;2022-11-12T10:18:24;12.80;;;9.93;;
12869;SDS011;6503;48.572;13.460;2022-11-12T10:20:58;15.00;;;11.07;;
12869;SDS011;6503;48.572;13.460;2022-11-12T10:23:35;12.02;;;10.35;;
12869;SDS011;6503;48.572;13.460;2022-11-12T10:26:09;11.70;;;10.43;;
12869;SDS011;6503;48.572;13.460;2022-11-12T10:28:38;13.43;;;10.57;;
12869;SDS011;6503;48.572;13.460;2022-11-12T10:31:13;11.95;;;10.65;;
12869;SDS011;6503;48.572;13.460;2022-11-12T10:33:40;12.63;;;11.25;;
12869;SDS011;6503;48.572;13.460;2022-11-12T10:36:11;18.45;;;12.00;;
12869;SDS011;6503;48.572;13.460;2022-11-12T10:38:45;15.65;;;12.30;;
12869;SDS011;6503;48.572;13.460;2022-11-12T10:41:19;16.92;;;13.27;;
12869;SDS011;6503;48.572;13.460;2022-11-12T10:43:52;14.85;;;12.40;;
12869;SDS011;6503;48.572;13.460;2022-11-12T10:46:23;15.15;;;12.13;;
12869;SDS011;6503;48.572;13.460;2022-11-12T10:48:52;17.40;;;12.50;;
12869;SDS011;6503;48.572;13.460;2022-11-12T10:51:26;15.37;;;12.47;;
12869;SDS011;6503;48.572;13.460;2022-11-12T10:53:57;13.70;;;12.20;;
12869;SDS011;6503;48.572;13.460;2022-11-12T10:56:26;15.68;;;12.65;;
12869;SDS011;6503;48.572;13.460;2022-11-12T10:59:07;13.52;;;12.02;;
12869;SDS011;6503;48.572;13.460;2022-11-12T11:04:03;15.10;;;11.18;;
12869;SDS011;6503;48.572;13.460;2022-11-12T11:06:40;14.95;;;11.73;;
12869;SDS011;6503;48.572;13.460;2022-11-12T11:09:08;13.10;;;11.80;;
12869;SDS011;6503;48.572;13.460;2022-11-12T11:11:47;12.45;;;11.10;;
12869;SDS011;6503;48.572;13.460;2022-11-12T11:14:23;12.73;;;11.25;;
12869;SDS011;6503;48.572;13.460;2022-11-12T11:19:27;15.70;;;11.40;;
12869;SDS011;6503;48.572;13.460;2022-11-12T11:25:02;13.90;;;10.80;;
12869;SDS011;6503;48.572;13.460;2022-11-12T11:27:39;14.10;;;11.82;;
12869;SDS011;6503;48.572;13.460;2022-11-12T11:30:10;14.75;;;12.20;;
12869;SDS011;6503;48.572;13.460;2022-11-12T11:32:49;12.48;;;11.10;;
12869;SDS011;6503;48.572;13.460;2022-11-12T11:35:38;13.93;;;11.75;;
12869;SDS011;6503;48.572;13.460;2022-11-12T11:38:19;13.07;;;11.68;;
12869;SDS011;6503;48.572;13.460;2022-11-12T11:40:58;14.50;;;12.15;;
12869;SDS011;6503;48.572;13.460;2022-11-12T11:43:41;12.68;;;11.38;;
12869;SDS011;6503;48.572;13.460;2022-11-12T11:46:18;12.63;;;11.25;;
12869;SDS011;6503;48.572;13.460;2022-11-12T11:49:01;12.95;;;10.70;;
12869;SDS011;6503;48.572;13.460;2022-11-12T11:51:46;13.60;;;11.95;;
12869;SDS011;6503;48.572;13.460;2022-11-12T11:57:15;11.43;;;10.13;;
12869;SDS011;6503;48.572;13.460;2022-11-12T11:59:59;13.55;;;11.40;;
12869;SDS011;6503;48.572;13.460;2022-11-12T12:06:00;12.20;;;10.93;;
12869;SDS011;6503;48.572;13.460;2022-11-12T12:08:41;11.70;;;10.45;;
12869;SDS011;6503;48.572;13.460;2022-11-12T12:11:25;11.75;;;10.55;;
12869;SDS011;6503;48.572;13.460;2022-11-12T12:14:01;14.60;;;11.35;;
12869;SDS011;6503;48.572;13.460;2022-11-12T12:16:41;11.48;;;10.27;;
12869;SDS011;6503;48.572;13.460;2022-11-12T12:19:21;10.48;;;9.13;;
12869;SDS011;6503;48.572;13.460;2022-11-12T12:21:59;13.47;;;10.77;;
12869;SDS011;6503;48.572;13.460;2022-11-12T12:24:29;11.27;;;10.13;;
12869;SDS011;6503;48.572;13.460;2022-11-12T12:26:59;11.70;;;10.60;;
12869;SDS011;6503;48.572;13.460;2022-11-12T12:32:01;12.35;;;10.27;;
12869;SDS011;6503;48.572;13.460;2022-11-12T12:34:36;16.50;;;10.05;;
12869;SDS011;6503;48.572;13.460;2022-11-12T12:37:09;11.20;;;9.95;;
12869;SDS011;6503;48.572;13.460;2022-11-12T12:39:43;10.88;;;9.73;;
12869;SDS011;6503;48.572;13.460;2022-11-12T12:42:18;12.98;;;10.05;;
12869;SDS011;6503;48.572;13.460;2022-11-12T12:44:49;10.95;;;9.85;;
12869;SDS011;6503;48.572;13.460;2022-11-12T12:47:26;11.32;;;10.13;;
12869;SDS011;6503;48.572;13.460;2022-11-12T12:49:54;11.20;;;9.80;;
12869;SDS011;6503;48.572;13.460;2022-11-12T12:52:24;11.88;;;10.63;;
12869;SDS011;6503;48.572;13.460;2022-11-12T12:54:54;12.40;;;10.88;;
12869;SDS011;6503;48.572;13.460;2022-11-12T12:57:25;11.90;;;10.73;;
12869;SDS011;6503;48.572;13.460;2022-11-12T13:03:02;10.73;;;9.63;;
12869;SDS011;6503;48.572;13.460;2022-11-12T13:05:29;10.77;;;9.68;;
12869;SDS011;6503;48.572;13.460;2022-11-12T13:08:00;11.07;;;9.95;;
12869;SDS011;6503;48.572;13.460;2022-11-12T13:10:33;10.80;;;9.80;;
12869;SDS011;6503;48.572;13.460;2022-11-12T13:13:25;12.23;;;10.70;;
12869;SDS011;6503;48.572;13.460;2022-11-12T13:16:00;10.50;;;9.40;;
12869;SDS011;6503;48.572;13.460;2022-11-12T13:21:24;14.43;;;10.77;;
12869;SDS011;6503;48.572;13.460;2022-11-12T13:23:52;12.95;;;11.52;;
12869;SDS011;6503;48.572;13.460;2022-11-12T13:26:46;13.55;;;10.77;;
12869;SDS011;6503;48.572;13.460;2022-11-12T13:29:19;11.23;;;9.50;;
12869;SDS011;6503;48.572;13.460;2022-11-12T13:32:25;13.90;;;11.23;;
12869;SDS011;6503;48.572;13.460;2022-11-12T13:38:02;12.07;;;10.82;;
12869;SDS011;6503;48.572;13.460;2022-11-12T13:40:44;11.60;;;10.40;;
12869;SDS011;6503;48.572;13.460;2022-11-12T13:46:23;12.55;;;10.77;;
12869;SDS011;6503;48.572;13.460;2022-11-12T13:48:55;11.85;;;10.75;;
12869;SDS011;6503;48.572;13.460;2022-11-12T13:51:32;11.60;;;10.48;;
12869;SDS011;6503;48.572;13.460;2022-11-12T13:57:13;12.63;;;11.43;;
12869;SDS011;6503;48.572;13.460;2022-11-12T14:00:09;11.77;;;10.43;;
12869;SDS011;6503;48.572;13.460;2022-11-12T14:02:51;12.75;;;11.55;;
12869;SDS011;6503;48.572;13.460;2022-11-12T14:05:20;14.82;;;13.40;;
12869;SDS011;6503;48.572;13.460;2022-11-12T14:07:55;15.70;;;12.55;;
12869;SDS011;6503;48.572;13.460;2022-11-12T14:10:34;14.15;;;12.13;;
12869;SDS011;6503;48.572;13.460;2022-11-12T14:13:10;14.82;;;13.23;;
12869;SDS011;6503;48.572;13.460;2022-11-12T14:15:52;15.05;;;13.55;;
12869;SDS011;6503;48.572;13.460;2022-11-12T14:18:31;17.42;;;14.98;;
12869;SDS011;6503;48.572;13.460;2022-11-12T14:21:11;16.63;;;14.88;;
12869;SDS011;6503;48.572;13.460;2022-11-12T14:23:41;17.35;;;15.52;;
12869;SDS011;6503;48.572;13.460;2022-11-12T14:26:10;17.17;;;15.38;;
12869;SDS011;6503;48.572;13.460;2022-11-12T14:28:39;18.33;;;15.68;;
12869;SDS011;6503;48.572;13.460;2022-11-12T14:31:11;17.17;;;15.38;;
12869;SDS011;6503;48.572;13.460;2022-11-12T14:33:40;18.27;;;16.38;;
12869;SDS011;6503;48.572;13.460;2022-11-12T14:36:09;18.08;;;15.50;;
12869;SDS011;6503;48.572;13.460;2022-11-12T14:38:40;18.10;;;16.10;;
12869;SDS011;6503;48.572;13.460;2022-11-12T14:41:10;17.95;;;15.98;;
12869;SDS011;6503;48.572;13.460;2022-11-12T14:43:45;21.27;;;16.88;;
12869;SDS011;6503;48.572;13.460;2022-11-12T14:46:19;18.35;;;15.57;;
12869;SDS011;6503;48.572;13.460;2022-11-12T14:48:49;20.33;;;15.88;;
12869;SDS011;6503;48.572;13.460;2022-11-12T14:51:19;17.23;;;15.45;;
12869;SDS011;6503;48.572;13.460;2022-11-12T14:53:50;20.08;;;16.00;;
12869;SDS011;6503;48.572;13.460;2022-11-12T14:56:22;16.98;;;15.18;;
12869;SDS011;6503;48.572;13.460;2022-11-12T14:58:54;18.33;;;15.77;;
12869;SDS011;6503;48.572;13.460;2022-11-12T15:01:23;19.77;;;15.90;;
12869;SDS011;6503;48.572;13.460;2022-11-12T15:04:01;19.58;;;16.05;;
12869;SDS011;6503;48.572;13.460;2022-11-12T15:06:30;19.83;;;17.13;;
12869;SDS011;6503;48.572;13.460;2022-11-12T15:08:58;19.02;;;16.98;;
12869;SDS011;6503;48.572;13.460;2022-11-12T15:11:26;20.08;;;17.35;;
12869;SDS011;6503;48.572;13.460;2022-11-12T15:13:57;25.00;;;17.00;;
12869;SDS011;6503;48.572;13.460;2022-11-12T15:16:28;18.80;;;16.80;;
12869;SDS011;6503;48.572;13.460;2022-11-12T15:19:12;19.42;;;16.50;;